Barnum, MN (55707)

3:35 PM CDT on June 30, 2015 (GMT -0500)
Coffee Lake | | Change Station
CLOSE
Current Station
Personal Weather Station
Location: Moose Lake Twp., MN
Elevation: 1060 ft
Nearby Weather Stations
Active Advisory: Beach Hazard Statement Active Notice: Local Storm Report

Elev 1060 ft 46.43 °N, 92.78 °W | Updated 7 seconds ago

Partly Cloudy
Partly Cloudy
73.9 °F
Feels Like 77 °F
N
3.4
Wind Variable Wind from NE
Gusts 7.4 mph

Today
High -- | Low -- °F
--% Chance of Precip.
Yesterday
High -- | Low -- °F
Precip. -- in
5:20 AM 9:07 PM
Waxing Gibbous, 98% visible
Pressure 29.95 in
Visibility 10.0 miles
Clouds Clear
Heat Index 77 °F
Dew Point 57 °F
Humidity 56%
Rainfall 0.00 in
Snow Depth Not available.
UV 9 out of 12
Pollen 4.60 out of 12
Air Quality Not available.
Flu Activity Sporadic
METAR KMZH 302014Z AUTO 09004KT 10SM CLR 20/15 A2995 RMK AO2

More Conditions Fewer Conditions

Pressure 29.95 in
Visibility 10.0 miles
Clouds Clear
Heat Index 77 °F
Dew Point 57 °F
Humidity 56%
Rainfall 0.00 in
Snow Depth Not available.
UV 9 out of 12
Pollen 4.60 out of 12
Air Quality Not available.
Flu Activity Sporadic
METAR KMZH 302014Z AUTO 09004KT 10SM CLR 20/15 A2995 RMK AO2

More Conditions Fewer Conditions

10-Day Weather Forecast

×

Almanac

Astronomy

Jun. 30, 2015 Rise Set
Actual Time
Civil Twilight
Nautical Twilight
Astronomical Twilight
Moon
Length of Visible Light
Length of Day
Tomorrow will be .
, % of the Moon is Illuminated

Today's Extremes

State Highs State Lows

Community

WunderPhotos

Upload Photos

1,834,063 photos uploaded!

WunderBlogs® & News

Nearby

Air Quality

  Air Quality AQ Index Pollutant
Not available.

Snow Depth

Station Depth Elevation

Earthquake Activity

City Distance Mag. Time & Date
Minimum magnitude displayed is 2.5.

Coastal Water Temperatures

Place Temperature

Stations

Nearby Weather Stations

Station Location Temp. Windchill Dew Point Humidity Wind Precip. Elev Updated Type
                   
Beach Hazard Statement
Statement as of 9:23 AM CDT on June 30, 2015

... Beach hazards statement in effect until 8 PM CDT this
evening...

The National Weather Service in Duluth has issued a beach hazards
statement for dangerous swimming conditions... which is in effect until
8 PM CDT this evening.

* Location... Park Point beach

* dangerous swimming conditions are occurring along the Lake
Superior shoreline due to high wave action and strong rip
currents. Rip currents have been reported and will continue
through the day.

* High wave action alone can make swimming difficult on days
such as this. Incoming waves in rapid succession can tire a
swimmer quickly.

Precautionary/preparedness actions...

Rip currents are powerful channels of water flowing quickly away
from shore... which occur most often at low spots in sandbars...
near shoreline structures such as peninsulas or breakwalls... and
near river mouths.

For additional safety information and precautions... please visit
www.Weather.Gov/Duluth



Jjm